createdAt,value
2018-09-03T00:01:16.047Z,12.93
2018-09-03T00:04:20.349Z,12.90
2018-09-03T00:07:24.695Z,13.33
2018-09-03T00:10:29.315Z,13.23
2018-09-03T00:13:33.909Z,12.90
2018-09-03T00:16:38.579Z,12.73
2018-09-03T00:19:43.781Z,13.20
2018-09-03T00:22:48.234Z,13.63
2018-09-03T00:25:52.756Z,14.90
2018-09-03T00:28:57.231Z,13.93
2018-09-03T00:32:07.208Z,14.23
2018-09-03T00:35:16.851Z,13.63
2018-09-03T00:38:26.388Z,13.53
2018-09-03T00:41:36.001Z,13.27
2018-09-03T00:44:45.591Z,13.10
2018-09-03T00:47:50.176Z,13.03
2018-09-03T00:50:55.211Z,12.53
2018-09-03T00:53:59.843Z,12.83
2018-09-03T00:57:04.253Z,13.03
2018-09-03T01:00:09.033Z,12.27
2018-09-03T01:03:13.554Z,12.70
2018-09-03T01:06:18.289Z,12.73
2018-09-03T01:09:22.919Z,13.63
2018-09-03T01:12:27.558Z,14.00
2018-09-03T01:15:31.917Z,13.03
2018-09-03T01:18:44.830Z,13.63
2018-09-03T01:21:49.501Z,13.07
2018-09-03T01:24:53.909Z,13.87
2018-09-03T01:27:58.293Z,13.53
2018-09-03T01:31:02.750Z,13.90
2018-09-03T01:34:07.306Z,12.73
2018-09-03T01:37:11.601Z,13.47
2018-09-03T01:40:15.886Z,14.43
2018-09-03T01:43:20.332Z,13.73
2018-09-03T01:46:24.699Z,12.63
2018-09-03T01:49:29.155Z,12.20
2018-09-03T01:52:33.524Z,11.30
2018-09-03T01:55:38.984Z,11.20
2018-09-03T01:58:43.726Z,11.13
2018-09-03T02:01:48.096Z,10.40
2018-09-03T02:04:52.832Z,9.97
2018-09-03T02:07:57.246Z,10.50
2018-09-03T02:11:01.654Z,10.93
2018-09-03T02:14:06.347Z,10.87
2018-09-03T02:17:11.807Z,11.00
2018-09-03T02:20:16.149Z,11.00
2018-09-03T02:23:20.785Z,10.30
2018-09-03T02:26:25.316Z,11.77
2018-09-03T02:29:29.628Z,11.47
2018-09-03T02:32:33.925Z,10.73
2018-09-03T02:35:38.268Z,10.50
2018-09-03T02:38:42.565Z,11.10
2018-09-03T02:41:46.879Z,10.73
2018-09-03T02:44:51.243Z,11.37
2018-09-03T02:47:55.640Z,11.23
2018-09-03T02:51:00.067Z,10.80
2018-09-03T02:54:04.461Z,11.13
2018-09-03T02:57:09.050Z,11.33
2018-09-03T03:00:13.592Z,11.37
2018-09-03T03:03:18.298Z,11.47
2018-09-03T03:06:22.667Z,10.83
2018-09-03T03:09:27.218Z,10.70
2018-09-03T03:12:31.598Z,10.90
2018-09-03T03:15:35.935Z,11.90
2018-09-03T03:18:40.382Z,11.63
2018-09-03T03:21:44.923Z,11.03
2018-09-03T03:24:49.697Z,11.33
2018-09-03T03:27:54.188Z,12.53
2018-09-03T03:30:58.650Z,12.90
2018-09-03T03:34:03.081Z,13.77
2018-09-03T03:37:07.696Z,13.10
2018-09-03T03:40:12.111Z,12.73
2018-09-03T03:43:16.803Z,13.53
2018-09-03T03:46:21.194Z,13.77
2018-09-03T03:49:25.501Z,14.80
2018-09-03T03:52:29.933Z,13.87
2018-09-03T03:55:34.301Z,14.23
2018-09-03T03:58:38.878Z,15.43
2018-09-03T04:01:43.278Z,14.73
2018-09-03T04:04:47.535Z,15.80
2018-09-03T04:07:52.020Z,15.23
2018-09-03T04:10:56.333Z,15.83
2018-09-03T04:14:00.643Z,16.07
2018-09-03T04:17:05.110Z,14.93
2018-09-03T04:20:09.420Z,16.07
2018-09-03T04:23:13.760Z,15.00
2018-09-03T04:26:17.988Z,16.23
2018-09-03T04:29:22.280Z,15.40
2018-09-03T04:32:26.591Z,15.53
2018-09-03T04:35:30.985Z,15.63
2018-09-03T04:38:35.304Z,15.10
2018-09-03T04:41:39.581Z,15.53
2018-09-03T04:44:43.941Z,14.93
2018-09-03T04:47:48.226Z,14.57
2018-09-03T04:50:52.687Z,14.60
2018-09-03T04:53:57.097Z,13.40
2018-09-03T04:57:01.616Z,15.30
2018-09-03T05:00:06.477Z,14.13
2018-09-03T05:03:10.810Z,14.27
2018-09-03T05:06:15.193Z,13.97
2018-09-03T05:09:19.524Z,14.10
2018-09-03T05:12:23.783Z,13.50
2018-09-03T05:15:28.171Z,14.70
2018-09-03T05:18:32.476Z,13.20
2018-09-03T05:21:36.828Z,14.63
2018-09-03T05:24:41.160Z,14.73
2018-09-03T05:27:45.585Z,14.10
2018-09-03T05:30:49.938Z,13.90
2018-09-03T05:33:54.275Z,14.00
2018-09-03T05:36:58.547Z,14.73
2018-09-03T05:40:02.947Z,13.67
2018-09-03T05:43:07.475Z,14.63
2018-09-03T05:46:11.691Z,14.70
2018-09-03T05:49:15.999Z,14.97
2018-09-03T05:52:20.437Z,14.70
2018-09-03T05:55:24.951Z,13.23
2018-09-03T05:58:29.376Z,14.27
2018-09-03T06:01:33.801Z,15.83
2018-09-03T06:04:39.176Z,13.60
2018-09-03T06:07:43.566Z,14.93
2018-09-03T06:10:47.993Z,12.73
2018-09-03T06:13:52.393Z,12.77
2018-09-03T06:16:56.784Z,13.40
2018-09-03T06:20:01.134Z,12.97
2018-09-03T06:23:05.490Z,12.20
2018-09-03T06:26:09.876Z,12.03
2018-09-03T06:29:14.197Z,11.40
2018-09-03T06:32:18.530Z,12.00
2018-09-03T06:35:22.835Z,11.03
2018-09-03T06:38:27.301Z,10.70
2018-09-03T06:41:31.647Z,11.20
2018-09-03T06:44:35.965Z,11.63
2018-09-03T06:47:40.275Z,11.00
2018-09-03T06:50:44.603Z,11.03
2018-09-03T06:53:48.932Z,10.50
2018-09-03T06:56:53.277Z,10.43
2018-09-03T06:59:57.596Z,10.70
2018-09-03T07:03:02.020Z,10.10
2018-09-03T07:06:06.653Z,10.07
2018-09-03T07:09:11.213Z,9.43
2018-09-03T07:12:15.487Z,9.80
2018-09-03T07:15:19.837Z,9.40
2018-09-03T07:18:24.253Z,9.13
2018-09-03T07:21:28.573Z,8.40
2018-09-03T07:24:33.286Z,8.47
2018-09-03T07:27:37.864Z,8.80
2018-09-03T07:30:42.312Z,8.27
2018-09-03T07:33:46.777Z,7.80
2018-09-03T07:36:51.057Z,8.40
2018-09-03T07:39:55.612Z,7.67
2018-09-03T07:43:00.021Z,8.50
2018-09-03T07:46:04.669Z,8.83
2018-09-03T07:49:09.205Z,7.40
2018-09-03T07:52:13.683Z,8.67
2018-09-03T07:55:18.008Z,6.90
2018-09-03T07:58:22.422Z,7.37
2018-09-03T08:01:26.950Z,7.20
2018-09-03T08:04:31.616Z,7.63
2018-09-03T08:07:36.070Z,7.73
2018-09-03T08:10:40.421Z,6.87
2018-09-03T08:13:44.917Z,8.43
2018-09-03T08:16:49.653Z,6.50
2018-09-03T08:19:54.121Z,7.00
2018-09-03T08:22:58.532Z,7.20
2018-09-03T08:26:03.154Z,6.30
2018-09-03T08:29:07.531Z,5.83
2018-09-03T08:32:12.459Z,6.13
2018-09-03T08:35:16.755Z,5.87
2018-09-03T08:38:21.082Z,6.30
2018-09-03T08:41:25.394Z,6.00
2018-09-03T08:44:29.903Z,5.97
2018-09-03T08:47:34.248Z,7.63
2018-09-03T08:50:38.986Z,9.27
2018-09-03T08:53:43.348Z,8.63
2018-09-03T08:56:47.805Z,10.33
2018-09-03T08:59:52.277Z,7.97
2018-09-03T09:02:56.683Z,6.37
2018-09-03T09:06:01.008Z,7.93
2018-09-03T09:09:06.717Z,6.30
2018-09-03T09:12:11.404Z,5.80
2018-09-03T09:15:15.749Z,5.80
2018-09-03T09:18:20.719Z,5.30
2018-09-03T09:21:26.523Z,5.50
2018-09-03T09:24:30.915Z,4.90
2018-09-03T09:27:35.378Z,5.40
2018-09-03T09:30:39.747Z,5.53
2018-09-03T09:33:44.101Z,5.27
2018-09-03T09:36:48.461Z,5.10
2018-09-03T09:39:52.752Z,5.70
2018-09-03T09:42:58.506Z,5.00
2018-09-03T09:46:03.280Z,5.63
2018-09-03T09:49:07.877Z,5.20
2018-09-03T09:52:12.278Z,5.37
2018-09-03T09:55:16.558Z,5.60
2018-09-03T09:58:20.859Z,6.13
2018-09-03T10:01:30.378Z,5.60
2018-09-03T10:04:34.789Z,6.20
2018-09-03T10:07:39.845Z,5.97
2018-09-03T10:10:45.095Z,6.80
2018-09-03T10:14:02.490Z,5.60
2018-09-03T10:17:07.218Z,6.17
2018-09-03T10:20:11.513Z,6.23
2018-09-03T10:23:15.999Z,6.73
2018-09-03T10:26:20.415Z,6.80
2018-09-03T10:29:24.730Z,6.70
2018-09-03T10:32:30.324Z,6.97
2018-09-03T10:35:34.596Z,7.60
2018-09-03T10:38:39.014Z,7.17
2018-09-03T10:41:43.608Z,7.67
2018-09-03T10:44:48.736Z,6.93
2018-09-03T10:47:53.217Z,6.80
2018-09-03T10:50:57.512Z,7.00
2018-09-03T10:54:01.811Z,6.33
2018-09-03T10:57:06.407Z,6.33
2018-09-03T11:00:10.842Z,6.23
2018-09-03T11:03:15.271Z,6.30
2018-09-03T11:06:19.600Z,5.87
2018-09-03T11:09:24.053Z,5.90
2018-09-03T11:12:28.355Z,5.57
2018-09-03T11:15:32.778Z,5.73
2018-09-03T11:18:37.235Z,5.57
2018-09-03T11:21:42.150Z,5.43
2018-09-03T11:24:46.543Z,6.10
2018-09-03T11:27:51.767Z,5.97
2018-09-03T11:30:56.159Z,5.40
2018-09-03T11:34:00.456Z,5.60
2018-09-03T11:37:04.875Z,6.00
2018-09-03T11:40:09.220Z,5.70
2018-09-03T11:43:13.536Z,5.93
2018-09-03T11:46:17.886Z,6.30
2018-09-03T11:49:22.741Z,6.03
2018-09-03T11:52:27.949Z,5.90
2018-09-03T11:55:32.702Z,5.63
2018-09-03T11:58:37.295Z,5.90
2018-09-03T12:01:41.621Z,5.93
2018-09-03T12:04:45.954Z,5.33
2018-09-03T12:07:52.951Z,5.53
2018-09-03T12:10:57.293Z,5.67
2018-09-03T12:14:06.081Z,5.53
2018-09-03T12:17:10.145Z,5.37
2018-09-03T12:20:14.727Z,5.00
2018-09-03T12:23:19.186Z,5.23
2018-09-03T12:26:23.553Z,5.60
2018-09-03T12:29:27.824Z,5.20
2018-09-03T12:32:32.396Z,5.00
2018-09-03T12:35:36.807Z,6.03
2018-09-03T12:38:42.076Z,5.03
2018-09-03T12:41:48.003Z,5.30
2018-09-03T12:44:53.693Z,4.93
2018-09-03T12:47:59.177Z,5.50
2018-09-03T12:51:04.925Z,4.93
2018-09-03T12:54:09.889Z,5.40
2018-09-03T12:57:14.631Z,5.83
2018-09-03T13:00:22.155Z,5.30
2018-09-03T13:03:26.950Z,5.60
2018-09-03T13:06:33.047Z,5.40
2018-09-03T13:09:39.744Z,5.67
2018-09-03T13:12:45.318Z,5.60
2018-09-03T13:15:58.826Z,5.40
2018-09-03T13:19:05.987Z,5.90
2018-09-03T13:22:10.401Z,5.47
2018-09-03T13:25:17.542Z,5.73
2018-09-03T13:28:21.861Z,5.20
2018-09-03T13:31:26.189Z,5.00
2018-09-03T13:34:30.680Z,5.10
2018-09-03T13:37:35.362Z,5.03
2018-09-03T13:40:40.233Z,5.37
2018-09-03T13:43:44.697Z,5.43
2018-09-03T13:46:49.026Z,5.93
2018-09-03T13:49:54.395Z,5.67
2018-09-03T13:52:59.186Z,5.23
2018-09-03T13:56:03.629Z,5.40
2018-09-03T13:59:08.502Z,6.03
2018-09-03T14:02:15.353Z,5.40
2018-09-03T14:05:20.517Z,5.50
2018-09-03T14:08:24.891Z,5.50
2018-09-03T14:11:30.091Z,5.30
2018-09-03T14:14:35.676Z,5.07
2018-09-03T14:17:39.987Z,5.33
2018-09-03T14:20:45.988Z,5.10
2018-09-03T14:23:50.429Z,5.83
2018-09-03T14:26:55.606Z,5.17
2018-09-03T14:30:00.165Z,5.00
2018-09-03T14:33:04.453Z,5.03
2018-09-03T14:36:09.048Z,5.20
2018-09-03T14:39:13.483Z,5.20
2018-09-03T14:42:19.285Z,5.50
2018-09-03T14:45:24.960Z,5.87
2018-09-03T14:48:29.256Z,5.43
2018-09-03T14:51:33.810Z,5.83
2018-09-03T14:54:39.217Z,5.20
2018-09-03T14:57:43.606Z,5.27
2018-09-03T15:00:47.956Z,5.37
2018-09-03T15:03:52.759Z,5.40
2018-09-03T15:06:57.111Z,4.90
2018-09-03T15:10:01.480Z,5.43
2018-09-03T15:13:06.057Z,5.40
2018-09-03T15:16:10.472Z,5.77
2018-09-03T15:19:14.776Z,5.57
2018-09-03T15:22:20.309Z,5.13
2018-09-03T15:25:24.661Z,4.83
2018-09-03T15:28:29.074Z,5.10
2018-09-03T15:31:33.516Z,5.37
2018-09-03T15:34:37.923Z,4.30
2018-09-03T15:37:43.513Z,4.60
2018-09-03T15:40:49.676Z,4.80
2018-09-03T15:43:54.728Z,4.90
2018-09-03T15:46:59.386Z,4.60
2018-09-03T15:50:04.381Z,5.07
2018-09-03T15:53:08.706Z,5.03
2018-09-03T15:56:13.022Z,4.57
2018-09-03T15:59:17.418Z,4.47
2018-09-03T16:02:21.746Z,5.00
2018-09-03T16:05:26.878Z,4.90
2018-09-03T16:08:31.176Z,4.90
2018-09-03T16:11:35.519Z,5.60
2018-09-03T16:14:41.254Z,5.50
2018-09-03T16:17:46.012Z,5.23
2018-09-03T16:20:50.823Z,5.27
2018-09-03T16:23:55.476Z,5.40
2018-09-03T16:27:00.293Z,5.03
2018-09-03T16:30:05.020Z,5.80
2018-09-03T16:33:10.091Z,5.53
2018-09-03T16:36:15.133Z,5.63
2018-09-03T16:39:21.116Z,5.80
2018-09-03T16:42:25.891Z,5.70
2018-09-03T16:45:30.706Z,5.33
2018-09-03T16:48:35.384Z,5.60
2018-09-03T16:51:40.937Z,5.70
2018-09-03T16:54:45.416Z,5.90
2018-09-03T16:57:50.660Z,5.43
2018-09-03T17:00:56.070Z,5.33
2018-09-03T17:04:00.884Z,5.90
2018-09-03T17:07:05.362Z,5.53
2018-09-03T17:10:10.571Z,5.43
2018-09-03T17:13:14.979Z,6.00
2018-09-03T17:16:19.931Z,5.83
2018-09-03T17:19:25.147Z,6.47
2018-09-03T17:22:29.629Z,6.20
2018-09-03T17:25:34.008Z,6.10
2018-09-03T17:28:38.421Z,6.17
2018-09-03T17:31:43.995Z,6.17
2018-09-03T17:34:48.457Z,5.87
2018-09-03T17:37:54.417Z,6.40
2018-09-03T17:40:59.605Z,5.87
2018-09-03T17:44:04.831Z,6.80
2018-09-03T17:47:10.084Z,6.67
2018-09-03T17:50:15.851Z,6.80
2018-09-03T17:53:20.276Z,6.60
2018-09-03T17:56:24.868Z,6.87
2018-09-03T17:59:29.789Z,6.53
2018-09-03T18:02:35.020Z,6.47
2018-09-03T18:05:39.510Z,6.73
2018-09-03T18:08:44.573Z,7.23
2018-09-03T18:11:48.935Z,7.00
2018-09-03T18:14:53.926Z,7.07
2018-09-03T18:17:58.707Z,6.80
2018-09-03T18:21:02.992Z,6.80
2018-09-03T18:24:07.471Z,7.03
2018-09-03T18:27:11.897Z,7.00
2018-09-03T18:30:19.216Z,7.17
2018-09-03T18:33:24.310Z,7.37
2018-09-03T18:36:28.761Z,6.83
2018-09-03T18:39:33.704Z,7.53
2018-09-03T18:42:38.358Z,7.33
2018-09-03T18:45:42.770Z,7.00
2018-09-03T18:48:47.474Z,7.23
2018-09-03T18:51:52.317Z,6.87
2018-09-03T18:54:56.781Z,7.10
2018-09-03T18:58:01.399Z,6.80
2018-09-03T19:01:06.945Z,7.50
2018-09-03T19:04:12.154Z,8.07
2018-09-03T19:07:17.906Z,7.10
2018-09-03T19:10:27.916Z,7.00
2018-09-03T19:13:33.022Z,7.40
2018-09-03T19:16:37.519Z,7.33
2018-09-03T19:19:43.253Z,7.20
2018-09-03T19:22:49.021Z,7.97
2018-09-03T19:25:54.027Z,7.33
2018-09-03T19:28:58.385Z,7.80
2018-09-03T19:32:03.659Z,7.60
2018-09-03T19:35:08.463Z,7.37
2018-09-03T19:38:12.957Z,8.33
2018-09-03T19:41:18.063Z,7.27
2018-09-03T19:44:22.989Z,8.17
2018-09-03T19:47:27.983Z,7.60
2018-09-03T19:50:32.899Z,7.20
2018-09-03T19:53:37.301Z,7.90
2018-09-03T19:56:46.307Z,7.90
2018-09-03T19:59:51.370Z,7.73
2018-09-03T20:02:57.272Z,8.07
2018-09-03T20:06:02.652Z,7.47
2018-09-03T20:09:07.429Z,7.57
2018-09-03T20:12:13.533Z,7.70
2018-09-03T20:15:23.233Z,8.70
2018-09-03T20:18:27.677Z,8.60
2018-09-03T20:21:33.626Z,8.23
2018-09-03T20:24:38.015Z,7.63
2018-09-03T20:27:43.084Z,7.60
2018-09-03T20:30:47.829Z,7.23
2018-09-03T20:33:53.083Z,7.53
2018-09-03T20:36:57.664Z,7.00
2018-09-03T20:40:03.461Z,6.80
2018-09-03T20:43:07.929Z,6.70
2018-09-03T20:46:15.584Z,6.20
2018-09-03T20:49:20.021Z,5.57
2018-09-03T20:52:24.528Z,6.53
2018-09-03T20:55:29.786Z,5.80
2018-09-03T20:58:34.913Z,6.00
2018-09-03T21:01:39.656Z,6.03
2018-09-03T21:04:44.057Z,6.53
2018-09-03T21:07:48.416Z,5.90
2018-09-03T21:10:53.814Z,6.90
2018-09-03T21:13:59.714Z,6.87
2018-09-03T21:17:04.109Z,6.00
2018-09-03T21:20:09.125Z,6.47
2018-09-03T21:23:14.354Z,6.57
2018-09-03T21:26:20.747Z,6.70
2018-09-03T21:29:26.253Z,6.40
2018-09-03T21:32:31.436Z,6.77
2018-09-03T21:35:36.800Z,6.80
2018-09-03T21:38:42.172Z,7.40
2018-09-03T21:41:48.064Z,6.67
2018-09-03T21:44:53.790Z,6.87
2018-09-03T21:47:58.979Z,6.87
2018-09-03T21:51:03.689Z,8.00
2018-09-03T21:54:08.945Z,7.87
2018-09-03T21:57:13.221Z,6.73
2018-09-03T22:00:18.608Z,7.00
2018-09-03T22:03:24.370Z,7.23
2018-09-03T22:06:31.388Z,6.40
2018-09-03T22:09:36.478Z,7.07
2018-09-03T22:12:41.228Z,6.53
2018-09-03T22:15:47.601Z,7.67
2018-09-03T22:18:52.775Z,7.93
2018-09-03T22:22:00.098Z,7.93
2018-09-03T22:25:05.011Z,7.97
2018-09-03T22:28:10.604Z,7.27
2018-09-03T22:31:15.642Z,7.77
2018-09-03T22:34:21.656Z,7.30
2018-09-03T22:37:26.964Z,7.17
2018-09-03T22:40:32.296Z,7.13
2018-09-03T22:43:37.964Z,7.37
2018-09-03T22:46:43.470Z,7.27
2018-09-03T22:49:48.882Z,7.30
2018-09-03T22:52:54.351Z,7.67
2018-09-03T22:55:59.891Z,6.80
2018-09-03T22:59:05.029Z,6.73
2018-09-03T23:02:09.425Z,7.27
2018-09-03T23:05:13.740Z,6.40
2018-09-03T23:08:20.764Z,6.83
2018-09-03T23:11:25.688Z,6.93
2018-09-03T23:14:30.980Z,6.87
2018-09-03T23:17:36.094Z,7.37
2018-09-03T23:20:41.046Z,8.50
2018-09-03T23:23:45.652Z,7.77
2018-09-03T23:26:50.404Z,7.50
2018-09-03T23:29:54.832Z,7.00
2018-09-03T23:32:59.813Z,6.70
2018-09-03T23:36:04.308Z,6.70
2018-09-03T23:39:09.879Z,7.10
2018-09-03T23:42:15.121Z,7.33
2018-09-03T23:45:19.539Z,6.70
2018-09-03T23:48:24.982Z,7.20
2018-09-03T23:51:30.105Z,7.47
2018-09-03T23:54:34.520Z,6.93
2018-09-03T23:57:38.820Z,8.13
